Gratiot, Ohio
Current Conditions -  °F | °C
As of 11:25 PM on Tuesday 27 Jan 2015 (Local Time) from KVTA Reporting Station
Broken Clouds Broken Clouds  
Wind Chill:   Ceiling: 2100
Heat Index:   Visibility: 8mi
Dew Point:   Wind: 0mph
Humidity: 83%   Direction: NA
Pressure: 30.2"   Gusts: NA
Location:  39.95°N, 82.22°W
Report Text: KVTA 280425Z AUTO 00000KT 8SM BKN021 M13/M16 A3020 RMK AO2 T11331156
Loading
Personal Weather Stations






























Interactive Weather Map New forecast layout! Learn more

10-Day Weather Forecast

Advertisements
Track Severe Weather on mobile